Portada
METAR-TAF:

METAR-TAF

Aeropuertos :

La Grande-4, Quebec, Canadá

latitud: 53-45N, longitud: 073-40W, altitud: 306 m

Observación

El informe se hizo hace 1 hora y 9 minutos, a las 00:00 UTC
Viento 4 kt del este-noreste
Temperatura 22°C
Humedad 60%
Presión 1020 hPa
Visibilidad: 14.5 km
Cielo despejado

METAR: CYAH 220000Z AUTO 07004KT 9SM CLR 22/14 A3012 RMK SLP207 DENSITY ALT 1700FT

Hora: 21:09 (01:09 UTC)

Pronóstico

El informe se hizo hace 7 horas y 31 minutos, a las 17:38 UTC
Pronóstico válido del 21 a las 18 UTC al 21 a las 21 UTC
Viento 5 kt del norte-noreste
Visibilidad: 10 km
Escasas nubes a una altura de 10000 ft
Cielo nuboso a una altura de 24000 ft
Temporalmente
del 21 a las 18 UTC al 21 a las 21 UTC
Cielo nuboso a una altura de 10000 ft
Cielo cubierto a una altura de 24000 ft

TAF: CYAH 211738Z 2118/2121 02005KT P6SM FEW100 BKN240 TEMPO 2118/2121 BKN100 OVC240 RMK FCST BASED ON AUTO OBS. NXT FCST WILL BE ISSUED AT 221045Z

Observaciones y pronósticos meteorológicos de más de 4000 aeropuertos (mensajes METAR y TAF).

Los puntos amarillos y rojos representan las estaciones disponibles.

Ponga el ratón en el punto deseado para ver el nombre de la estación.

Haga clic para ver las observaciones y los pronósticos meteorológicos.

Para cambiar el mapa : haga clic en los botones verdes con una cruz de color negro para hacer un zoom, en el botón verde con un guión para alejar o en las flechas verdes para mapas adyacentes.


METAR-TAF: